sensor_id;sensor_type;location;lat;lon;timestamp;pressure;altitude;pressure_sealevel;temperature;humidity
68988;BME280;56038;46.080;11.116;2024-01-16T00:04:00;98236.03;;;-1.02;100.00
68988;BME280;56038;46.080;11.116;2024-01-16T00:09:01;98244.56;;;-1.00;100.00
68988;BME280;56038;46.080;11.116;2024-01-16T00:14:03;98263.28;;;-0.94;100.00
68988;BME280;56038;46.080;11.116;2024-01-16T00:19:06;98271.84;;;-0.96;100.00
68988;BME280;56038;46.080;11.116;2024-01-16T00:24:08;98295.72;;;-0.91;100.00
68988;BME280;56038;46.080;11.116;2024-01-16T00:29:09;98276.09;;;-0.95;100.00
68988;BME280;56038;46.080;11.116;2024-01-16T00:34:13;98294.94;;;-0.99;100.00
68988;BME280;56038;46.080;11.116;2024-01-16T00:39:15;98301.72;;;-0.95;100.00
68988;BME280;56038;46.080;11.116;2024-01-16T00:44:17;98309.44;;;-0.98;100.00
68988;BME280;56038;46.080;11.116;2024-01-16T00:49:20;98305.22;;;-1.01;100.00
68988;BME280;56038;46.080;11.116;2024-01-16T00:54:21;98315.53;;;-1.05;100.00
68988;BME280;56038;46.080;11.116;2024-01-16T00:59:23;98340.25;;;-1.03;100.00
68988;BME280;56038;46.080;11.116;2024-01-16T01:04:26;98338.59;;;-1.05;100.00
68988;BME280;56038;46.080;11.116;2024-01-16T01:09:27;98346.28;;;-1.05;100.00
68988;BME280;56038;46.080;11.116;2024-01-16T01:14:29;98343.69;;;-1.04;100.00
68988;BME280;56038;46.080;11.116;2024-01-16T01:19:33;98350.56;;;-1.07;100.00
68988;BME280;56038;46.080;11.116;2024-01-16T01:24:34;98365.97;;;-1.09;100.00
68988;BME280;56038;46.080;11.116;2024-01-16T01:29:36;98367.69;;;-1.12;100.00
68988;BME280;56038;46.080;11.116;2024-01-16T01:34:41;98376.22;;;-1.13;100.00
68988;BME280;56038;46.080;11.116;2024-01-16T01:39:42;98375.41;;;-1.17;100.00
68988;BME280;56038;46.080;11.116;2024-01-16T01:44:44;98381.50;;;-1.26;100.00
68988;BME280;56038;46.080;11.116;2024-01-16T01:49:47;98384.91;;;-1.25;100.00
68988;BME280;56038;46.080;11.116;2024-01-16T01:54:51;98389.19;;;-1.29;100.00
68988;BME280;56038;46.080;11.116;2024-01-16T01:59:53;98395.16;;;-1.30;100.00
68988;BME280;56038;46.080;11.116;2024-01-16T02:04:56;98394.31;;;-1.30;100.00
68988;BME280;56038;46.080;11.116;2024-01-16T02:09:58;98406.28;;;-1.31;100.00
68988;BME280;56038;46.080;11.116;2024-01-16T02:15:00;98426.00;;;-1.39;100.00
68988;BME280;56038;46.080;11.116;2024-01-16T02:20:05;98420.91;;;-1.45;100.00
68988;BME280;56038;46.080;11.116;2024-01-16T02:25:09;98436.25;;;-1.43;100.00
68988;BME280;56038;46.080;11.116;2024-01-16T02:30:12;98435.47;;;-1.50;100.00
68988;BME280;56038;46.080;11.116;2024-01-16T02:35:13;98440.59;;;-1.52;100.00
68988;BME280;56038;46.080;11.116;2024-01-16T02:40:17;98434.66;;;-1.60;100.00
68988;BME280;56038;46.080;11.116;2024-01-16T02:45:19;98438.97;;;-1.63;100.00
68988;BME280;56038;46.080;11.116;2024-01-16T02:50:21;98444.16;;;-1.72;100.00
68988;BME280;56038;46.080;11.116;2024-01-16T02:55:24;98458.69;;;-1.79;100.00
68988;BME280;56038;46.080;11.116;2024-01-16T03:00:26;98459.56;;;-1.82;100.00
68988;BME280;56038;46.080;11.116;2024-01-16T03:05:28;98480.88;;;-1.81;100.00
68988;BME280;56038;46.080;11.116;2024-01-16T03:10:31;98492.84;;;-1.83;100.00
68988;BME280;56038;46.080;11.116;2024-01-16T03:15:32;98495.44;;;-1.92;100.00
68988;BME280;56038;46.080;11.116;2024-01-16T03:20:34;98498.84;;;-1.89;100.00
68988;BME280;56038;46.080;11.116;2024-01-16T03:25:37;98498.84;;;-1.93;100.00
68988;BME280;56038;46.080;11.116;2024-01-16T03:30:39;98505.66;;;-1.94;100.00
68988;BME280;56038;46.080;11.116;2024-01-16T03:35:41;98516.81;;;-2.01;100.00
68988;BME280;56038;46.080;11.116;2024-01-16T03:40:44;98520.19;;;-1.96;100.00
68988;BME280;56038;46.080;11.116;2024-01-16T03:45:46;98525.31;;;-1.99;100.00
68988;BME280;56038;46.080;11.116;2024-01-16T03:50:47;98527.88;;;-2.00;100.00
68988;BME280;56038;46.080;11.116;2024-01-16T03:55:50;98541.56;;;-2.04;100.00
68988;BME280;56038;46.080;11.116;2024-01-16T04:00:52;98535.59;;;-2.11;100.00
68988;BME280;56038;46.080;11.116;2024-01-16T04:05:54;98539.88;;;-2.15;100.00
68988;BME280;56038;46.080;11.116;2024-01-16T04:10:57;98561.19;;;-2.17;100.00
68988;BME280;56038;46.080;11.116;2024-01-16T04:15:58;98568.03;;;-2.28;100.00
68988;BME280;56038;46.080;11.116;2024-01-16T04:21:00;98568.91;;;-2.32;100.00
68988;BME280;56038;46.080;11.116;2024-01-16T04:26:03;98574.00;;;-2.37;100.00
68988;BME280;56038;46.080;11.116;2024-01-16T04:31:05;98575.72;;;-2.37;100.00
68988;BME280;56038;46.080;11.116;2024-01-16T04:36:07;98579.94;;;-2.24;100.00
68988;BME280;56038;46.080;11.116;2024-01-16T04:41:11;98583.38;;;-2.19;100.00
68988;BME280;56038;46.080;11.116;2024-01-16T04:46:14;98597.03;;;-2.20;100.00
68988;BME280;56038;46.080;11.116;2024-01-16T04:51:15;98609.78;;;-2.16;100.00
68988;BME280;56038;46.080;11.116;2024-01-16T04:56:18;98610.66;;;-2.18;100.00
68988;BME280;56038;46.080;11.116;2024-01-16T05:01:21;98622.59;;;-2.26;100.00
68988;BME280;56038;46.080;11.116;2024-01-16T05:06:22;98620.06;;;-2.34;100.00
68988;BME280;56038;46.080;11.116;2024-01-16T05:11:25;98640.50;;;-2.34;100.00
68988;BME280;56038;46.080;11.116;2024-01-16T05:16:27;98643.06;;;-2.31;100.00
68988;BME280;56038;46.080;11.116;2024-01-16T05:21:29;98642.19;;;-2.25;100.00
68988;BME280;56038;46.080;11.116;2024-01-16T05:26:32;98648.19;;;-2.29;100.00
68988;BME280;56038;46.080;11.116;2024-01-16T05:31:39;98632.81;;;-2.26;100.00
68988;BME280;56038;46.080;11.116;2024-01-16T05:36:41;98652.44;;;-2.28;100.00
68988;BME280;56038;46.080;11.116;2024-01-16T05:41:45;98646.47;;;-2.27;100.00
68988;BME280;56038;46.080;11.116;2024-01-16T05:46:47;98656.69;;;-2.27;100.00
68988;BME280;56038;46.080;11.116;2024-01-16T05:51:48;98657.53;;;-2.27;100.00
68988;BME280;56038;46.080;11.116;2024-01-16T05:56:51;98669.50;;;-2.29;100.00
68988;BME280;56038;46.080;11.116;2024-01-16T06:01:53;98683.97;;;-2.26;100.00
68988;BME280;56038;46.080;11.116;2024-01-16T06:06:55;98693.34;;;-2.27;100.00
68988;BME280;56038;46.080;11.116;2024-01-16T06:11:58;98689.94;;;-2.26;100.00
68988;BME280;56038;46.080;11.116;2024-01-16T06:16:59;98700.16;;;-2.23;100.00
68988;BME280;56038;46.080;11.116;2024-01-16T06:22:01;98713.81;;;-2.24;100.00
68988;BME280;56038;46.080;11.116;2024-01-16T06:27:06;98713.81;;;-2.16;100.00
68988;BME280;56038;46.080;11.116;2024-01-16T06:32:08;98711.25;;;-2.12;100.00
68988;BME280;56038;46.080;11.116;2024-01-16T06:37:09;98724.91;;;-2.05;100.00
68988;BME280;56038;46.080;11.116;2024-01-16T06:42:12;98734.31;;;-2.04;100.00
68988;BME280;56038;46.080;11.116;2024-01-16T06:47:14;98742.81;;;-2.13;100.00
68988;BME280;56038;46.080;11.116;2024-01-16T06:52:16;98731.72;;;-2.13;100.00
68988;BME280;56038;46.080;11.116;2024-01-16T06:57:19;98741.97;;;-2.16;100.00
68988;BME280;56038;46.080;11.116;2024-01-16T07:02:20;98745.38;;;-2.20;100.00
68988;BME280;56038;46.080;11.116;2024-01-16T07:07:22;98753.88;;;-2.21;100.00
68988;BME280;56038;46.080;11.116;2024-01-16T07:12:26;98776.06;;;-2.26;100.00
68988;BME280;56038;46.080;11.116;2024-01-16T07:17:27;98779.47;;;-2.26;100.00
68988;BME280;56038;46.080;11.116;2024-01-16T07:22:29;98786.28;;;-2.22;100.00
68988;BME280;56038;46.080;11.116;2024-01-16T07:27:32;98794.84;;;-2.18;100.00
68988;BME280;56038;46.080;11.116;2024-01-16T07:32:34;98802.50;;;-2.09;100.00
68988;BME280;56038;46.080;11.116;2024-01-16T07:37:35;98813.63;;;-2.04;100.00
68988;BME280;56038;46.080;11.116;2024-01-16T07:42:39;98814.47;;;-1.99;100.00
68988;BME280;56038;46.080;11.116;2024-01-16T07:47:40;98819.56;;;-1.91;100.00
68988;BME280;56038;46.080;11.116;2024-01-16T07:52:42;98824.72;;;-1.79;100.00
68988;BME280;56038;46.080;11.116;2024-01-16T07:57:45;98828.13;;;-1.68;100.00
68988;BME280;56038;46.080;11.116;2024-01-16T08:02:46;98837.53;;;-1.58;100.00
68988;BME280;56038;46.080;11.116;2024-01-16T08:07:48;98835.81;;;-1.51;100.00
68988;BME280;56038;46.080;11.116;2024-01-16T08:12:51;98838.34;;;-1.31;100.00
68988;BME280;56038;46.080;11.116;2024-01-16T08:17:52;98839.97;;;-0.97;100.00
68988;BME280;56038;46.080;11.116;2024-01-16T08:22:54;98853.59;;;-0.73;100.00
68988;BME280;56038;46.080;11.116;2024-01-16T08:27:57;98855.31;;;-0.81;100.00
68988;BME280;56038;46.080;11.116;2024-01-16T08:32:59;98852.75;;;-0.77;100.00
68988;BME280;56038;46.080;11.116;2024-01-16T08:38:01;98856.97;;;-0.64;100.00
68988;BME280;56038;46.080;11.116;2024-01-16T08:43:04;98855.13;;;-0.26;100.00
68988;BME280;56038;46.080;11.116;2024-01-16T08:48:06;98866.47;;;0.66;100.00
68988;BME280;56038;46.080;11.116;2024-01-16T08:53:07;98869.16;;;2.04;100.00
68988;BME280;56038;46.080;11.116;2024-01-16T08:58:10;98871.63;;;3.18;100.00
68988;BME280;56038;46.080;11.116;2024-01-16T09:03:12;98883.91;;;3.92;100.00
68988;BME280;56038;46.080;11.116;2024-01-16T09:08:14;98891.81;;;4.26;100.00
68988;BME280;56038;46.080;11.116;2024-01-16T09:13:17;98900.69;;;4.87;100.00
68988;BME280;56038;46.080;11.116;2024-01-16T09:18:20;98910.63;;;5.36;94.77
68988;BME280;56038;46.080;11.116;2024-01-16T09:23:23;98906.63;;;5.90;90.71
68988;BME280;56038;46.080;11.116;2024-01-16T09:28:26;98897.28;;;6.42;99.49
68988;BME280;56038;46.080;11.116;2024-01-16T09:33:29;98903.56;;;7.15;84.98
68988;BME280;56038;46.080;11.116;2024-01-16T09:38:30;98903.97;;;7.53;80.33
68988;BME280;56038;46.080;11.116;2024-01-16T09:43:33;98911.34;;;8.12;76.03
68988;BME280;56038;46.080;11.116;2024-01-16T09:48:35;98911.97;;;8.42;76.34
68988;BME280;56038;46.080;11.116;2024-01-16T09:53:40;98904.59;;;8.75;78.89
68988;BME280;56038;46.080;11.116;2024-01-16T09:58:44;98904.00;;;8.68;72.25
68988;BME280;56038;46.080;11.116;2024-01-16T10:03:49;98903.84;;;8.93;69.91
68988;BME280;56038;46.080;11.116;2024-01-16T10:08:51;98900.09;;;9.00;69.93
68988;BME280;56038;46.080;11.116;2024-01-16T10:13:54;98880.19;;;9.59;66.59
68988;BME280;56038;46.080;11.116;2024-01-16T10:19:06;98877.13;;;10.07;60.82
68988;BME280;56038;46.080;11.116;2024-01-16T10:24:11;98864.84;;;10.30;61.00
68988;BME280;56038;46.080;11.116;2024-01-16T10:29:14;98865.16;;;10.77;59.28
68988;BME280;56038;46.080;11.116;2024-01-16T10:34:19;98854.16;;;10.70;57.49
68988;BME280;56038;46.080;11.116;2024-01-16T10:39:21;98851.50;;;11.06;55.13
68988;BME280;56038;46.080;11.116;2024-01-16T10:44:24;98847.22;;;11.56;52.04
68988;BME280;56038;46.080;11.116;2024-01-16T10:49:27;98847.72;;;11.29;50.35
68988;BME280;56038;46.080;11.116;2024-01-16T10:54:29;98840.63;;;11.31;50.00
68988;BME280;56038;46.080;11.116;2024-01-16T10:59:39;98842.06;;;11.87;45.20
68988;BME280;56038;46.080;11.116;2024-01-16T11:04:43;98838.56;;;11.71;47.10
68988;BME280;56038;46.080;11.116;2024-01-16T11:09:44;98836.59;;;12.08;45.86
68988;BME280;56038;46.080;11.116;2024-01-16T11:14:47;98838.53;;;12.36;43.22
68988;BME280;56038;46.080;11.116;2024-01-16T11:19:52;98835.91;;;12.20;42.38
68988;BME280;56038;46.080;11.116;2024-01-16T11:25:10;98833.56;;;11.99;35.98
68988;BME280;56038;46.080;11.116;2024-01-16T11:30:29;98831.34;;;12.39;35.96
68988;BME280;56038;46.080;11.116;2024-01-16T11:35:35;98823.00;;;12.78;38.67
68988;BME280;56038;46.080;11.116;2024-01-16T11:40:38;98811.22;;;13.72;37.49
68988;BME280;56038;46.080;11.116;2024-01-16T11:45:51;98811.53;;;14.23;33.81
68988;BME280;56038;46.080;11.116;2024-01-16T11:50:54;98795.06;;;14.48;35.47
68988;BME280;56038;46.080;11.116;2024-01-16T11:56:02;98778.44;;;14.87;34.06
68988;BME280;56038;46.080;11.116;2024-01-16T12:01:11;98779.63;;;15.34;33.19
68988;BME280;56038;46.080;11.116;2024-01-16T12:06:15;98776.78;;;15.50;32.32
68988;BME280;56038;46.080;11.116;2024-01-16T12:11:18;98771.50;;;16.12;33.25
68988;BME280;56038;46.080;11.116;2024-01-16T12:16:21;98760.59;;;16.40;32.67
68988;BME280;56038;46.080;11.116;2024-01-16T12:21:23;98760.81;;;16.26;32.36
68988;BME280;56038;46.080;11.116;2024-01-16T12:26:25;98738.97;;;16.48;32.17
68988;BME280;56038;46.080;11.116;2024-01-16T12:31:29;98736.06;;;16.40;31.99
68988;BME280;56038;46.080;11.116;2024-01-16T12:36:30;98740.38;;;16.41;32.04
68988;BME280;56038;46.080;11.116;2024-01-16T12:41:35;98722.88;;;16.40;31.88
68988;BME280;56038;46.080;11.116;2024-01-16T12:46:40;98712.44;;;15.41;32.84
68988;BME280;56038;46.080;11.116;2024-01-16T12:51:41;98711.72;;;14.23;34.30
68988;BME280;56038;46.080;11.116;2024-01-16T12:56:43;98695.03;;;13.56;35.70
68988;BME280;56038;46.080;11.116;2024-01-16T13:01:47;98696.47;;;13.05;36.40
68988;BME280;56038;46.080;11.116;2024-01-16T13:06:49;98693.78;;;12.48;36.74
68988;BME280;56038;46.080;11.116;2024-01-16T13:11:52;98692.38;;;11.96;37.51
68988;BME280;56038;46.080;11.116;2024-01-16T13:16:56;98688.25;;;11.61;38.31
68988;BME280;56038;46.080;11.116;2024-01-16T13:21:58;98681.66;;;11.22;38.57
68988;BME280;56038;46.080;11.116;2024-01-16T13:26:59;98666.38;;;10.82;39.32
68988;BME280;56038;46.080;11.116;2024-01-16T13:32:03;98681.88;;;10.52;39.72
68988;BME280;56038;46.080;11.116;2024-01-16T13:37:05;98689.38;;;10.23;40.19
68988;BME280;56038;46.080;11.116;2024-01-16T13:42:07;98667.09;;;9.99;39.77
68988;BME280;56038;46.080;11.116;2024-01-16T13:47:11;98664.31;;;9.48;40.45
68988;BME280;56038;46.080;11.116;2024-01-16T13:52:12;98671.66;;;8.82;41.44
68988;BME280;56038;46.080;11.116;2024-01-16T13:57:14;98671.25;;;8.10;43.16
68988;BME280;56038;46.080;11.116;2024-01-16T14:02:17;98664.50;;;7.18;44.61
68988;BME280;56038;46.080;11.116;2024-01-16T14:07:19;98663.63;;;6.96;48.00
68988;BME280;56038;46.080;11.116;2024-01-16T14:12:22;98658.31;;;6.99;49.82
68988;BME280;56038;46.080;11.116;2024-01-16T14:17:26;98645.19;;;6.55;48.71
68988;BME280;56038;46.080;11.116;2024-01-16T14:22:28;98654.94;;;6.24;48.55
68988;BME280;56038;46.080;11.116;2024-01-16T14:27:29;98645.53;;;5.95;49.18
68988;BME280;56038;46.080;11.116;2024-01-16T14:32:32;98653.13;;;5.73;49.69
68988;BME280;56038;46.080;11.116;2024-01-16T14:37:34;98636.63;;;5.49;49.35
68988;BME280;56038;46.080;11.116;2024-01-16T14:42:36;98640.63;;;5.31;50.67
68988;BME280;56038;46.080;11.116;2024-01-16T14:47:39;98634.31;;;5.12;51.67
68988;BME280;56038;46.080;11.116;2024-01-16T14:52:41;98640.03;;;4.94;51.81
68988;BME280;56038;46.080;11.116;2024-01-16T14:57:42;98647.53;;;4.73;52.16
68988;BME280;56038;46.080;11.116;2024-01-16T15:02:47;98655.53;;;4.64;53.17
68988;BME280;56038;46.080;11.116;2024-01-16T15:07:50;98659.16;;;4.57;53.57
68988;BME280;56038;46.080;11.116;2024-01-16T15:12:52;98663.81;;;4.46;54.50
68988;BME280;56038;46.080;11.116;2024-01-16T15:17:55;98659.84;;;4.33;55.52
68988;BME280;56038;46.080;11.116;2024-01-16T15:22:57;98664.53;;;4.18;56.91
68988;BME280;56038;46.080;11.116;2024-01-16T15:27:59;98664.78;;;4.08;56.17
68988;BME280;56038;46.080;11.116;2024-01-16T15:33:02;98680.50;;;4.00;55.21
68988;BME280;56038;46.080;11.116;2024-01-16T15:38:07;98684.69;;;4.04;55.02
68988;BME280;56038;46.080;11.116;2024-01-16T15:43:10;98672.69;;;4.02;55.45
68988;BME280;56038;46.080;11.116;2024-01-16T15:48:13;98684.94;;;3.95;55.31
68988;BME280;56038;46.080;11.116;2024-01-16T15:53:15;98695.75;;;3.74;58.13
68988;BME280;56038;46.080;11.116;2024-01-16T15:58:17;98712.84;;;3.42;60.33
68988;BME280;56038;46.080;11.116;2024-01-16T16:03:20;98697.41;;;3.39;60.65
68988;BME280;56038;46.080;11.116;2024-01-16T16:08:22;98685.50;;;3.34;63.43
68988;BME280;56038;46.080;11.116;2024-01-16T16:13:25;98704.34;;;3.37;62.45
68988;BME280;56038;46.080;11.116;2024-01-16T16:18:32;98713.06;;;3.33;65.52
68988;BME280;56038;46.080;11.116;2024-01-16T16:23:37;98718.56;;;3.15;68.57
68988;BME280;56038;46.080;11.116;2024-01-16T16:28:39;98717.91;;;3.07;69.92
68988;BME280;56038;46.080;11.116;2024-01-16T16:33:42;98723.13;;;3.04;69.08
68988;BME280;56038;46.080;11.116;2024-01-16T16:38:45;98738.84;;;2.91;69.98
68988;BME280;56038;46.080;11.116;2024-01-16T16:43:46;98742.47;;;2.81;70.71
68988;BME280;56038;46.080;11.116;2024-01-16T16:48:49;98763.94;;;2.82;71.69
68988;BME280;56038;46.080;11.116;2024-01-16T16:53:51;98767.59;;;2.72;72.98
68988;BME280;56038;46.080;11.116;2024-01-16T16:59:01;98772.81;;;2.68;73.75
68988;BME280;56038;46.080;11.116;2024-01-16T17:04:04;98784.97;;;2.60;74.75
68988;BME280;56038;46.080;11.116;2024-01-16T17:09:06;98794.47;;;2.58;74.46
68988;BME280;56038;46.080;11.116;2024-01-16T17:14:11;98806.59;;;2.52;75.17
68988;BME280;56038;46.080;11.116;2024-01-16T17:19:14;98806.81;;;2.39;77.50
68988;BME280;56038;46.080;11.116;2024-01-16T17:24:16;98829.38;;;2.25;78.77
68988;BME280;56038;46.080;11.116;2024-01-16T17:29:18;98830.28;;;2.23;78.19
68988;BME280;56038;46.080;11.116;2024-01-16T17:34:22;98828.63;;;2.17;81.00
68988;BME280;56038;46.080;11.116;2024-01-16T17:39:24;98824.34;;;2.16;81.28
68988;BME280;56038;46.080;11.116;2024-01-16T17:44:26;98830.47;;;2.10;80.64
68988;BME280;56038;46.080;11.116;2024-01-16T17:49:32;98834.97;;;1.95;90.43
68988;BME280;56038;46.080;11.116;2024-01-16T17:54:37;98856.59;;;1.83;85.14
68988;BME280;56038;46.080;11.116;2024-01-16T17:59:39;98860.91;;;1.81;86.41
68988;BME280;56038;46.080;11.116;2024-01-16T18:04:42;98854.97;;;1.77;86.63
68988;BME280;56038;46.080;11.116;2024-01-16T18:09:44;98851.59;;;1.74;87.63
68988;BME280;56038;46.080;11.116;2024-01-16T18:14:46;98852.53;;;1.67;89.92
68988;BME280;56038;46.080;11.116;2024-01-16T18:19:49;98861.22;;;1.58;93.00
68988;BME280;56038;46.080;11.116;2024-01-16T18:24:53;98863.81;;;1.55;93.03
68988;BME280;56038;46.080;11.116;2024-01-16T18:29:56;98874.19;;;1.49;93.36
68988;BME280;56038;46.080;11.116;2024-01-16T18:34:59;98858.84;;;1.43;94.30
68988;BME280;56038;46.080;11.116;2024-01-16T18:40:01;98859.63;;;1.48;93.93
68988;BME280;56038;46.080;11.116;2024-01-16T18:45:04;98871.69;;;1.44;93.23
68988;BME280;56038;46.080;11.116;2024-01-16T18:50:07;98875.09;;;1.45;93.24
68988;BME280;56038;46.080;11.116;2024-01-16T18:55:10;98877.75;;;1.37;92.99
68988;BME280;56038;46.080;11.116;2024-01-16T19:00:14;98879.53;;;1.32;96.01
68988;BME280;56038;46.080;11.116;2024-01-16T19:05:17;98882.31;;;1.14;97.49
68988;BME280;56038;46.080;11.116;2024-01-16T19:10:19;98866.06;;;1.07;98.62
68988;BME280;56038;46.080;11.116;2024-01-16T19:15:21;98873.78;;;1.06;98.38
68988;BME280;56038;46.080;11.116;2024-01-16T19:20:24;98868.69;;;1.03;97.88
68988;BME280;56038;46.080;11.116;2024-01-16T19:25:25;98872.06;;;1.06;97.53
68988;BME280;56038;46.080;11.116;2024-01-16T19:30:27;98874.66;;;1.06;96.31
68988;BME280;56038;46.080;11.116;2024-01-16T19:35:30;98867.03;;;0.99;98.94
68988;BME280;56038;46.080;11.116;2024-01-16T19:40:32;98874.78;;;0.93;99.91
68988;BME280;56038;46.080;11.116;2024-01-16T19:45:34;98869.75;;;0.83;100.00
68988;BME280;56038;46.080;11.116;2024-01-16T19:50:37;98875.69;;;0.87;100.00
68988;BME280;56038;46.080;11.116;2024-01-16T19:55:38;98882.59;;;0.82;100.00
68988;BME280;56038;46.080;11.116;2024-01-16T20:00:40;98890.34;;;0.77;100.00
68988;BME280;56038;46.080;11.116;2024-01-16T20:05:44;98901.53;;;0.72;100.00
68988;BME280;56038;46.080;11.116;2024-01-16T20:10:46;98904.16;;;0.67;100.00
68988;BME280;56038;46.080;11.116;2024-01-16T20:15:47;98907.59;;;0.63;100.00
68988;BME280;56038;46.080;11.116;2024-01-16T20:20:51;98910.16;;;0.63;100.00
68988;BME280;56038;46.080;11.116;2024-01-16T20:25:53;98917.03;;;0.59;100.00
68988;BME280;56038;46.080;11.116;2024-01-16T20:30:54;98924.78;;;0.56;100.00
68988;BME280;56038;46.080;11.116;2024-01-16T20:35:57;98925.63;;;0.57;100.00
68988;BME280;56038;46.080;11.116;2024-01-16T20:41:01;98922.25;;;0.52;100.00
68988;BME280;56038;46.080;11.116;2024-01-16T20:46:03;98928.28;;;0.48;100.00
68988;BME280;56038;46.080;11.116;2024-01-16T20:51:06;98924.91;;;0.40;100.00
68988;BME280;56038;46.080;11.116;2024-01-16T20:56:12;98930.06;;;0.37;100.00
68988;BME280;56038;46.080;11.116;2024-01-16T21:01:14;98941.25;;;0.25;100.00
68988;BME280;56038;46.080;11.116;2024-01-16T21:06:17;98941.38;;;0.04;100.00
68988;BME280;56038;46.080;11.116;2024-01-16T21:11:18;98955.94;;;0.02;100.00
68988;BME280;56038;46.080;11.116;2024-01-16T21:16:21;98951.63;;;0.08;100.00
68988;BME280;56038;46.080;11.116;2024-01-16T21:21:24;98951.63;;;0.07;100.00
68988;BME280;56038;46.080;11.116;2024-01-16T21:26:28;98937.94;;;0.05;100.00
68988;BME280;56038;46.080;11.116;2024-01-16T21:31:29;98945.63;;;0.08;100.00
68988;BME280;56038;46.080;11.116;2024-01-16T21:36:33;98948.19;;;0.08;100.00
68988;BME280;56038;46.080;11.116;2024-01-16T21:41:35;98931.09;;;0.07;100.00
68988;BME280;56038;46.080;11.116;2024-01-16T21:46:37;98930.28;;;0.00;100.00
68988;BME280;56038;46.080;11.116;2024-01-16T21:51:40;98945.69;;;-0.03;100.00
68988;BME280;56038;46.080;11.116;2024-01-16T21:56:44;98953.38;;;-0.05;100.00
68988;BME280;56038;46.080;11.116;2024-01-16T22:01:46;98949.09;;;-0.03;100.00
68988;BME280;56038;46.080;11.116;2024-01-16T22:06:49;98954.22;;;-0.03;100.00
68988;BME280;56038;46.080;11.116;2024-01-16T22:11:52;98957.72;;;-0.16;100.00
68988;BME280;56038;46.080;11.116;2024-01-16T22:16:53;98954.31;;;-0.21;100.00
68988;BME280;56038;46.080;11.116;2024-01-16T22:21:56;98938.06;;;-0.20;100.00
68988;BME280;56038;46.080;11.116;2024-01-16T22:26:58;98941.47;;;-0.19;100.00
68988;BME280;56038;46.080;11.116;2024-01-16T22:32:00;98941.50;;;-0.25;100.00
68988;BME280;56038;46.080;11.116;2024-01-16T22:37:03;98935.53;;;-0.31;100.00
68988;BME280;56038;46.080;11.116;2024-01-16T22:42:07;98924.41;;;-0.29;100.00
68988;BME280;56038;46.080;11.116;2024-01-16T22:47:10;98927.81;;;-0.26;100.00
68988;BME280;56038;46.080;11.116;2024-01-16T22:52:12;98919.22;;;-0.19;100.00
68988;BME280;56038;46.080;11.116;2024-01-16T22:57:14;98927.75;;;-0.17;100.00
68988;BME280;56038;46.080;11.116;2024-01-16T23:02:17;98932.94;;;-0.21;100.00
68988;BME280;56038;46.080;11.116;2024-01-16T23:07:20;98925.28;;;-0.29;100.00
68988;BME280;56038;46.080;11.116;2024-01-16T23:12:22;98935.53;;;-0.29;100.00
68988;BME280;56038;46.080;11.116;2024-01-16T23:17:24;98925.25;;;-0.32;100.00
68988;BME280;56038;46.080;11.116;2024-01-16T23:22:27;98931.25;;;-0.28;100.00
68988;BME280;56038;46.080;11.116;2024-01-16T23:27:30;98899.59;;;-0.24;100.00
68988;BME280;56038;46.080;11.116;2024-01-16T23:32:31;98909.00;;;-0.25;100.00
68988;BME280;56038;46.080;11.116;2024-01-16T23:37:35;98879.97;;;-0.32;100.00
68988;BME280;56038;46.080;11.116;2024-01-16T23:42:37;98874.81;;;-0.30;100.00
68988;BME280;56038;46.080;11.116;2024-01-16T23:47:39;98870.50;;;-0.23;100.00
68988;BME280;56038;46.080;11.116;2024-01-16T23:52:43;98867.06;;;-0.21;100.00
68988;BME280;56038;46.080;11.116;2024-01-16T23:57:45;98861.88;;;-0.10;100.00
